Terminal Aerodrome Forecast
Issued by NWS

Home | Current Version | Previous Version | Text Only | Print | Product List | Glossary Off
Versions: 1 2 3 4 5 6 7 8 9 10 11 12 13 14 15

000
FTUS43 KABR 271100
TAFATY
TAF
KATY 271127Z 2712/2812 30010KT P6SM BKN150
     FM271400 24006KT P6SM SCT100
     FM271800 24007KT P6SM BKN030
     FM272100 23007KT P6SM SKC
     FM280200 19006KT P6SM BKN100=

USA.gov is the U.S. government's official web portal to all federal, state and local government web resources and services.